sensor_id;sensor_type;location;lat;lon;timestamp;P1;durP1;ratioP1;P2;durP2;ratioP2
44810;SDS011;30526;52.184;4.476;2022-12-18T00:00:43;73.15;;;25.38;;
44810;SDS011;30526;52.184;4.476;2022-12-18T00:03:11;74.18;;;26.42;;
44810;SDS011;30526;52.184;4.476;2022-12-18T00:05:37;76.80;;;25.10;;
44810;SDS011;30526;52.184;4.476;2022-12-18T00:08:03;69.97;;;25.92;;
44810;SDS011;30526;52.184;4.476;2022-12-18T00:10:29;84.28;;;26.67;;
44810;SDS011;30526;52.184;4.476;2022-12-18T00:12:55;79.20;;;25.40;;
44810;SDS011;30526;52.184;4.476;2022-12-18T00:15:21;84.85;;;28.63;;
44810;SDS011;30526;52.184;4.476;2022-12-18T00:17:47;74.22;;;26.23;;
44810;SDS011;30526;52.184;4.476;2022-12-18T00:20:13;71.80;;;25.92;;
44810;SDS011;30526;52.184;4.476;2022-12-18T00:22:39;85.13;;;27.20;;
44810;SDS011;30526;52.184;4.476;2022-12-18T00:25:06;73.78;;;25.52;;
44810;SDS011;30526;52.184;4.476;2022-12-18T00:27:32;74.63;;;25.20;;
44810;SDS011;30526;52.184;4.476;2022-12-18T00:29:58;80.55;;;26.33;;
44810;SDS011;30526;52.184;4.476;2022-12-18T00:32:24;71.65;;;25.80;;
44810;SDS011;30526;52.184;4.476;2022-12-18T00:34:50;82.03;;;27.52;;
44810;SDS011;30526;52.184;4.476;2022-12-18T00:37:16;77.30;;;27.15;;
44810;SDS011;30526;52.184;4.476;2022-12-18T00:39:42;79.25;;;26.63;;
44810;SDS011;30526;52.184;4.476;2022-12-18T00:42:09;76.72;;;25.38;;
44810;SDS011;30526;52.184;4.476;2022-12-18T00:44:54;48.95;;;17.77;;
44810;SDS011;30526;52.184;4.476;2022-12-18T00:47:20;82.38;;;25.20;;
44810;SDS011;30526;52.184;4.476;2022-12-18T00:49:46;85.93;;;28.10;;
44810;SDS011;30526;52.184;4.476;2022-12-18T00:52:12;81.53;;;26.85;;
44810;SDS011;30526;52.184;4.476;2022-12-18T00:54:38;85.47;;;25.98;;
44810;SDS011;30526;52.184;4.476;2022-12-18T00:57:04;79.10;;;26.83;;
44810;SDS011;30526;52.184;4.476;2022-12-18T00:59:30;73.35;;;24.65;;
44810;SDS011;30526;52.184;4.476;2022-12-18T01:01:56;94.80;;;27.02;;
44810;SDS011;30526;52.184;4.476;2022-12-18T01:04:22;89.75;;;28.25;;
44810;SDS011;30526;52.184;4.476;2022-12-18T01:06:48;82.07;;;26.38;;
44810;SDS011;30526;52.184;4.476;2022-12-18T01:09:14;93.28;;;28.30;;
44810;SDS011;30526;52.184;4.476;2022-12-18T01:11:41;79.50;;;24.95;;
44810;SDS011;30526;52.184;4.476;2022-12-18T01:14:07;58.17;;;19.57;;
44810;SDS011;30526;52.184;4.476;2022-12-18T01:16:33;77.95;;;26.33;;
44810;SDS011;30526;52.184;4.476;2022-12-18T01:18:59;89.82;;;27.35;;
44810;SDS011;30526;52.184;4.476;2022-12-18T01:21:25;74.32;;;24.67;;
44810;SDS011;30526;52.184;4.476;2022-12-18T01:23:55;80.30;;;24.02;;
44810;SDS011;30526;52.184;4.476;2022-12-18T01:26:21;84.90;;;24.67;;
44810;SDS011;30526;52.184;4.476;2022-12-18T01:28:47;75.15;;;24.30;;
44810;SDS011;30526;52.184;4.476;2022-12-18T01:31:15;79.22;;;25.02;;
44810;SDS011;30526;52.184;4.476;2022-12-18T01:33:41;69.13;;;25.10;;
44810;SDS011;30526;52.184;4.476;2022-12-18T01:36:08;59.40;;;18.48;;
44810;SDS011;30526;52.184;4.476;2022-12-18T01:38:34;53.53;;;17.90;;
44810;SDS011;30526;52.184;4.476;2022-12-18T01:41:00;65.35;;;24.70;;
44810;SDS011;30526;52.184;4.476;2022-12-18T01:46:08;68.50;;;23.35;;
44810;SDS011;30526;52.184;4.476;2022-12-18T01:48:34;66.63;;;22.73;;
44810;SDS011;30526;52.184;4.476;2022-12-18T01:51:00;74.63;;;24.33;;
44810;SDS011;30526;52.184;4.476;2022-12-18T01:53:26;49.23;;;16.40;;
44810;SDS011;30526;52.184;4.476;2022-12-18T01:55:54;57.80;;;19.17;;
44810;SDS011;30526;52.184;4.476;2022-12-18T02:00:46;70.47;;;23.10;;
44810;SDS011;30526;52.184;4.476;2022-12-18T02:03:12;92.72;;;23.15;;
44810;SDS011;30526;52.184;4.476;2022-12-18T02:05:54;77.03;;;24.90;;
44810;SDS011;30526;52.184;4.476;2022-12-18T02:08:27;79.55;;;25.17;;
44810;SDS011;30526;52.184;4.476;2022-12-18T02:18:40;74.15;;;23.02;;
44810;SDS011;30526;52.184;4.476;2022-12-18T02:21:23;73.40;;;23.92;;
44810;SDS011;30526;52.184;4.476;2022-12-18T02:23:54;70.18;;;23.42;;
44810;SDS011;30526;52.184;4.476;2022-12-18T02:26:25;59.10;;;22.25;;
44810;SDS011;30526;52.184;4.476;2022-12-18T02:28:54;75.70;;;24.17;;
44810;SDS011;30526;52.184;4.476;2022-12-18T02:31:23;67.20;;;23.30;;
44810;SDS011;30526;52.184;4.476;2022-12-18T02:33:51;67.88;;;21.85;;
44810;SDS011;30526;52.184;4.476;2022-12-18T02:36:19;56.67;;;20.85;;
44810;SDS011;30526;52.184;4.476;2022-12-18T02:38:46;46.35;;;17.90;;
44810;SDS011;30526;52.184;4.476;2022-12-18T02:41:12;50.15;;;15.73;;
44810;SDS011;30526;52.184;4.476;2022-12-18T02:46:20;46.28;;;16.00;;
44810;SDS011;30526;52.184;4.476;2022-12-18T02:48:49;51.53;;;19.55;;
44810;SDS011;30526;52.184;4.476;2022-12-18T02:51:29;46.40;;;16.90;;
44810;SDS011;30526;52.184;4.476;2022-12-18T02:54:07;54.47;;;20.02;;
44810;SDS011;30526;52.184;4.476;2022-12-18T02:56:35;72.32;;;23.80;;
44810;SDS011;30526;52.184;4.476;2022-12-18T02:59:19;74.65;;;23.83;;
44810;SDS011;30526;52.184;4.476;2022-12-18T03:01:54;64.05;;;22.00;;
44810;SDS011;30526;52.184;4.476;2022-12-18T03:04:25;62.40;;;21.65;;
44810;SDS011;30526;52.184;4.476;2022-12-18T03:06:56;62.75;;;20.52;;
44810;SDS011;30526;52.184;4.476;2022-12-18T03:09:31;57.70;;;20.95;;
44810;SDS011;30526;52.184;4.476;2022-12-18T03:12:22;48.13;;;16.97;;
44810;SDS011;30526;52.184;4.476;2022-12-18T03:15:13;73.43;;;22.73;;
44810;SDS011;30526;52.184;4.476;2022-12-18T03:17:35;54.22;;;18.45;;
44810;SDS011;30526;52.184;4.476;2022-12-18T03:20:06;61.67;;;20.20;;
44810;SDS011;30526;52.184;4.476;2022-12-18T03:22:33;57.80;;;20.45;;
44810;SDS011;30526;52.184;4.476;2022-12-18T03:25:02;57.78;;;19.50;;
44810;SDS011;30526;52.184;4.476;2022-12-18T03:27:29;64.15;;;21.63;;
44810;SDS011;30526;52.184;4.476;2022-12-18T03:30:01;66.63;;;22.77;;
44810;SDS011;30526;52.184;4.476;2022-12-18T03:32:33;60.08;;;20.52;;
44810;SDS011;30526;52.184;4.476;2022-12-18T03:35:00;72.80;;;23.45;;
44810;SDS011;30526;52.184;4.476;2022-12-18T03:37:29;64.65;;;21.35;;
44810;SDS011;30526;52.184;4.476;2022-12-18T03:39:55;64.05;;;21.65;;
44810;SDS011;30526;52.184;4.476;2022-12-18T03:43:07;61.17;;;20.80;;
44810;SDS011;30526;52.184;4.476;2022-12-18T03:45:22;40.78;;;14.20;;
44810;SDS011;30526;52.184;4.476;2022-12-18T03:50:20;62.70;;;21.15;;
44810;SDS011;30526;52.184;4.476;2022-12-18T03:52:49;56.53;;;21.00;;
44810;SDS011;30526;52.184;4.476;2022-12-18T03:55:17;57.47;;;20.20;;
44810;SDS011;30526;52.184;4.476;2022-12-18T04:00:13;59.63;;;20.30;;
44810;SDS011;30526;52.184;4.476;2022-12-18T04:02:44;59.53;;;20.80;;
44810;SDS011;30526;52.184;4.476;2022-12-18T04:05:11;55.58;;;20.55;;
44810;SDS011;30526;52.184;4.476;2022-12-18T04:07:38;41.70;;;14.13;;
44810;SDS011;30526;52.184;4.476;2022-12-18T04:10:05;58.80;;;20.45;;
44810;SDS011;30526;52.184;4.476;2022-12-18T04:12:32;74.18;;;22.27;;
44810;SDS011;30526;52.184;4.476;2022-12-18T04:14:58;64.13;;;19.50;;
44810;SDS011;30526;52.184;4.476;2022-12-18T04:17:24;60.38;;;21.30;;
44810;SDS011;30526;52.184;4.476;2022-12-18T04:19:50;62.75;;;21.98;;
44810;SDS011;30526;52.184;4.476;2022-12-18T04:22:16;58.25;;;19.77;;
44810;SDS011;30526;52.184;4.476;2022-12-18T04:24:42;50.08;;;17.85;;
44810;SDS011;30526;52.184;4.476;2022-12-18T04:27:08;62.20;;;20.80;;
44810;SDS011;30526;52.184;4.476;2022-12-18T04:29:34;58.55;;;21.40;;
44810;SDS011;30526;52.184;4.476;2022-12-18T04:32:00;59.63;;;20.98;;
44810;SDS011;30526;52.184;4.476;2022-12-18T04:34:26;60.38;;;20.17;;
44810;SDS011;30526;52.184;4.476;2022-12-18T04:36:52;55.30;;;18.90;;
44810;SDS011;30526;52.184;4.476;2022-12-18T04:39:19;69.75;;;22.55;;
44810;SDS011;30526;52.184;4.476;2022-12-18T04:41:45;66.75;;;21.90;;
44810;SDS011;30526;52.184;4.476;2022-12-18T04:44:11;65.90;;;22.10;;
44810;SDS011;30526;52.184;4.476;2022-12-18T04:46:37;59.80;;;19.85;;
44810;SDS011;30526;52.184;4.476;2022-12-18T04:49:03;62.38;;;21.13;;
44810;SDS011;30526;52.184;4.476;2022-12-18T04:51:29;60.05;;;21.63;;
44810;SDS011;30526;52.184;4.476;2022-12-18T04:53:55;66.47;;;21.50;;
44810;SDS011;30526;52.184;4.476;2022-12-18T04:56:21;57.72;;;19.08;;
44810;SDS011;30526;52.184;4.476;2022-12-18T04:58:47;65.18;;;22.27;;
44810;SDS011;30526;52.184;4.476;2022-12-18T05:01:14;61.72;;;19.98;;
44810;SDS011;30526;52.184;4.476;2022-12-18T05:03:40;51.30;;;16.40;;
44810;SDS011;30526;52.184;4.476;2022-12-18T05:06:06;53.42;;;19.58;;
44810;SDS011;30526;52.184;4.476;2022-12-18T05:08:32;55.13;;;20.75;;
44810;SDS011;30526;52.184;4.476;2022-12-18T05:11:05;44.38;;;16.95;;
44810;SDS011;30526;52.184;4.476;2022-12-18T05:13:33;55.47;;;20.95;;
44810;SDS011;30526;52.184;4.476;2022-12-18T05:15:59;40.13;;;14.55;;
44810;SDS011;30526;52.184;4.476;2022-12-18T05:18:25;56.10;;;18.83;;
44810;SDS011;30526;52.184;4.476;2022-12-18T05:20:52;42.42;;;13.57;;
44810;SDS011;30526;52.184;4.476;2022-12-18T05:23:18;42.55;;;15.05;;
44810;SDS011;30526;52.184;4.476;2022-12-18T05:25:50;42.83;;;15.80;;
44810;SDS011;30526;52.184;4.476;2022-12-18T05:28:17;53.78;;;19.35;;
44810;SDS011;30526;52.184;4.476;2022-12-18T05:30:46;53.22;;;18.23;;
44810;SDS011;30526;52.184;4.476;2022-12-18T05:33:13;58.80;;;19.75;;
44810;SDS011;30526;52.184;4.476;2022-12-18T05:35:39;63.42;;;20.88;;
44810;SDS011;30526;52.184;4.476;2022-12-18T05:38:05;53.85;;;18.92;;
44810;SDS011;30526;52.184;4.476;2022-12-18T05:40:31;54.47;;;19.20;;
44810;SDS011;30526;52.184;4.476;2022-12-18T05:42:57;57.10;;;18.73;;
44810;SDS011;30526;52.184;4.476;2022-12-18T05:45:23;63.63;;;20.85;;
44810;SDS011;30526;52.184;4.476;2022-12-18T05:47:49;57.42;;;19.80;;
44810;SDS011;30526;52.184;4.476;2022-12-18T05:50:15;49.97;;;19.77;;
44810;SDS011;30526;52.184;4.476;2022-12-18T05:52:41;52.35;;;18.60;;
44810;SDS011;30526;52.184;4.476;2022-12-18T05:55:07;54.78;;;20.17;;
44810;SDS011;30526;52.184;4.476;2022-12-18T05:57:33;54.92;;;18.83;;
44810;SDS011;30526;52.184;4.476;2022-12-18T05:59:59;59.30;;;19.90;;
44810;SDS011;30526;52.184;4.476;2022-12-18T06:02:25;54.20;;;19.15;;
44810;SDS011;30526;52.184;4.476;2022-12-18T06:04:51;51.63;;;19.98;;
44810;SDS011;30526;52.184;4.476;2022-12-18T06:07:17;52.00;;;20.15;;
44810;SDS011;30526;52.184;4.476;2022-12-18T06:09:43;55.83;;;19.70;;
44810;SDS011;30526;52.184;4.476;2022-12-18T06:12:10;57.35;;;20.10;;
44810;SDS011;30526;52.184;4.476;2022-12-18T06:14:36;57.72;;;19.95;;
44810;SDS011;30526;52.184;4.476;2022-12-18T06:17:02;54.53;;;19.20;;
44810;SDS011;30526;52.184;4.476;2022-12-18T06:19:28;55.88;;;19.58;;
44810;SDS011;30526;52.184;4.476;2022-12-18T06:21:54;51.60;;;20.33;;
44810;SDS011;30526;52.184;4.476;2022-12-18T06:24:22;56.78;;;20.38;;
44810;SDS011;30526;52.184;4.476;2022-12-18T06:26:48;54.78;;;21.10;;
44810;SDS011;30526;52.184;4.476;2022-12-18T06:29:14;56.88;;;19.70;;
44810;SDS011;30526;52.184;4.476;2022-12-18T06:31:40;54.65;;;20.63;;
44810;SDS011;30526;52.184;4.476;2022-12-18T06:34:06;56.20;;;21.02;;
44810;SDS011;30526;52.184;4.476;2022-12-18T06:36:32;56.65;;;19.75;;
44810;SDS011;30526;52.184;4.476;2022-12-18T06:38:58;60.92;;;21.77;;
44810;SDS011;30526;52.184;4.476;2022-12-18T06:41:25;54.30;;;20.15;;
44810;SDS011;30526;52.184;4.476;2022-12-18T06:43:51;45.23;;;16.97;;
44810;SDS011;30526;52.184;4.476;2022-12-18T06:46:17;56.15;;;20.98;;
44810;SDS011;30526;52.184;4.476;2022-12-18T06:48:46;55.08;;;20.40;;
44810;SDS011;30526;52.184;4.476;2022-12-18T06:51:12;62.40;;;20.33;;
44810;SDS011;30526;52.184;4.476;2022-12-18T06:53:40;46.55;;;19.27;;
44810;SDS011;30526;52.184;4.476;2022-12-18T06:56:07;52.08;;;19.52;;
44810;SDS011;30526;52.184;4.476;2022-12-18T06:58:33;44.45;;;15.93;;
44810;SDS011;30526;52.184;4.476;2022-12-18T07:01:03;48.38;;;19.05;;
44810;SDS011;30526;52.184;4.476;2022-12-18T07:03:30;54.50;;;19.20;;
44810;SDS011;30526;52.184;4.476;2022-12-18T07:05:56;44.58;;;14.20;;
44810;SDS011;30526;52.184;4.476;2022-12-18T07:08:22;52.85;;;19.42;;
44810;SDS011;30526;52.184;4.476;2022-12-18T07:10:48;53.33;;;17.48;;
44810;SDS011;30526;52.184;4.476;2022-12-18T07:13:15;49.78;;;19.48;;
44810;SDS011;30526;52.184;4.476;2022-12-18T07:15:41;40.30;;;14.50;;
44810;SDS011;30526;52.184;4.476;2022-12-18T07:18:07;39.90;;;13.90;;
44810;SDS011;30526;52.184;4.476;2022-12-18T07:20:33;48.30;;;17.67;;
44810;SDS011;30526;52.184;4.476;2022-12-18T07:23:01;40.13;;;16.98;;
44810;SDS011;30526;52.184;4.476;2022-12-18T07:25:27;45.63;;;17.90;;
44810;SDS011;30526;52.184;4.476;2022-12-18T07:27:54;47.03;;;16.75;;
44810;SDS011;30526;52.184;4.476;2022-12-18T07:30:20;32.17;;;13.17;;
44810;SDS011;30526;52.184;4.476;2022-12-18T07:32:46;45.45;;;17.60;;
44810;SDS011;30526;52.184;4.476;2022-12-18T07:35:12;45.33;;;17.65;;
44810;SDS011;30526;52.184;4.476;2022-12-18T07:37:38;36.50;;;13.75;;
44810;SDS011;30526;52.184;4.476;2022-12-18T07:40:04;44.78;;;16.67;;
44810;SDS011;30526;52.184;4.476;2022-12-18T07:42:31;39.88;;;14.38;;
44810;SDS011;30526;52.184;4.476;2022-12-18T07:44:57;29.92;;;12.40;;
44810;SDS011;30526;52.184;4.476;2022-12-18T07:47:23;35.78;;;13.45;;
44810;SDS011;30526;52.184;4.476;2022-12-18T07:49:50;29.42;;;12.90;;
44810;SDS011;30526;52.184;4.476;2022-12-18T07:52:16;45.28;;;17.17;;
44810;SDS011;30526;52.184;4.476;2022-12-18T07:54:42;40.00;;;17.02;;
44810;SDS011;30526;52.184;4.476;2022-12-18T07:57:08;42.85;;;16.73;;
44810;SDS011;30526;52.184;4.476;2022-12-18T07:59:34;41.13;;;17.60;;
44810;SDS011;30526;52.184;4.476;2022-12-18T08:02:00;28.43;;;14.60;;
44810;SDS011;30526;52.184;4.476;2022-12-18T08:04:26;42.08;;;16.63;;
44810;SDS011;30526;52.184;4.476;2022-12-18T08:06:52;41.97;;;18.45;;
44810;SDS011;30526;52.184;4.476;2022-12-18T08:09:18;42.03;;;16.02;;
44810;SDS011;30526;52.184;4.476;2022-12-18T08:11:44;38.90;;;17.23;;
44810;SDS011;30526;52.184;4.476;2022-12-18T08:14:11;45.30;;;18.20;;
44810;SDS011;30526;52.184;4.476;2022-12-18T08:16:37;45.58;;;17.95;;
44810;SDS011;30526;52.184;4.476;2022-12-18T08:19:03;29.48;;;13.38;;
44810;SDS011;30526;52.184;4.476;2022-12-18T08:21:30;38.20;;;16.88;;
44810;SDS011;30526;52.184;4.476;2022-12-18T08:23:57;27.52;;;13.60;;
44810;SDS011;30526;52.184;4.476;2022-12-18T08:26:23;41.05;;;17.20;;
44810;SDS011;30526;52.184;4.476;2022-12-18T08:28:50;32.67;;;13.90;;
44810;SDS011;30526;52.184;4.476;2022-12-18T08:31:17;28.65;;;13.82;;
44810;SDS011;30526;52.184;4.476;2022-12-18T08:33:43;30.25;;;12.55;;
44810;SDS011;30526;52.184;4.476;2022-12-18T08:36:09;36.78;;;16.33;;
44810;SDS011;30526;52.184;4.476;2022-12-18T08:38:35;39.55;;;18.23;;
44810;SDS011;30526;52.184;4.476;2022-12-18T08:41:04;42.47;;;17.90;;
44810;SDS011;30526;52.184;4.476;2022-12-18T08:43:31;35.70;;;16.08;;
44810;SDS011;30526;52.184;4.476;2022-12-18T08:46:16;39.88;;;16.45;;
44810;SDS011;30526;52.184;4.476;2022-12-18T08:48:42;28.27;;;12.70;;
44810;SDS011;30526;52.184;4.476;2022-12-18T08:51:09;34.25;;;16.63;;
44810;SDS011;30526;52.184;4.476;2022-12-18T08:53:35;34.80;;;12.75;;
44810;SDS011;30526;52.184;4.476;2022-12-18T08:56:02;28.38;;;12.30;;
44810;SDS011;30526;52.184;4.476;2022-12-18T08:58:28;24.13;;;12.23;;
44810;SDS011;30526;52.184;4.476;2022-12-18T09:00:59;26.70;;;11.70;;
44810;SDS011;30526;52.184;4.476;2022-12-18T09:03:25;37.47;;;15.98;;
44810;SDS011;30526;52.184;4.476;2022-12-18T09:05:51;33.63;;;15.82;;
44810;SDS011;30526;52.184;4.476;2022-12-18T09:08:17;34.20;;;16.15;;
44810;SDS011;30526;52.184;4.476;2022-12-18T09:10:44;34.65;;;16.48;;
44810;SDS011;30526;52.184;4.476;2022-12-18T09:13:10;25.08;;;11.57;;
44810;SDS011;30526;52.184;4.476;2022-12-18T09:15:43;29.48;;;13.32;;
44810;SDS011;30526;52.184;4.476;2022-12-18T09:18:13;33.30;;;15.02;;
44810;SDS011;30526;52.184;4.476;2022-12-18T09:23:06;22.50;;;11.90;;
44810;SDS011;30526;52.184;4.476;2022-12-18T09:25:32;31.95;;;15.00;;
44810;SDS011;30526;52.184;4.476;2022-12-18T09:28:00;35.72;;;15.48;;
44810;SDS011;30526;52.184;4.476;2022-12-18T09:30:27;25.42;;;12.10;;
44810;SDS011;30526;52.184;4.476;2022-12-18T09:32:53;35.60;;;12.35;;
44810;SDS011;30526;52.184;4.476;2022-12-18T09:35:19;31.38;;;15.77;;
44810;SDS011;30526;52.184;4.476;2022-12-18T09:37:45;35.00;;;15.65;;
44810;SDS011;30526;52.184;4.476;2022-12-18T09:40:14;35.72;;;15.85;;
44810;SDS011;30526;52.184;4.476;2022-12-18T09:42:42;33.35;;;15.27;;
44810;SDS011;30526;52.184;4.476;2022-12-18T09:45:12;32.92;;;15.80;;
44810;SDS011;30526;52.184;4.476;2022-12-18T09:47:39;30.42;;;16.02;;
44810;SDS011;30526;52.184;4.476;2022-12-18T09:50:19;24.00;;;11.75;;
44810;SDS011;30526;52.184;4.476;2022-12-18T09:52:47;31.60;;;14.43;;
44810;SDS011;30526;52.184;4.476;2022-12-18T09:55:23;31.58;;;15.23;;
44810;SDS011;30526;52.184;4.476;2022-12-18T09:57:54;32.10;;;13.90;;
44810;SDS011;30526;52.184;4.476;2022-12-18T10:00:23;32.40;;;14.98;;
44810;SDS011;30526;52.184;4.476;2022-12-18T10:02:51;31.52;;;15.63;;
44810;SDS011;30526;52.184;4.476;2022-12-18T10:05:25;33.83;;;16.00;;
44810;SDS011;30526;52.184;4.476;2022-12-18T10:10:42;33.35;;;14.88;;
44810;SDS011;30526;52.184;4.476;2022-12-18T10:20:39;26.52;;;13.80;;
44810;SDS011;30526;52.184;4.476;2022-12-18T10:23:12;33.33;;;15.73;;
44810;SDS011;30526;52.184;4.476;2022-12-18T10:25:59;27.63;;;13.43;;
44810;SDS011;30526;52.184;4.476;2022-12-18T10:28:26;29.45;;;11.48;;
44810;SDS011;30526;52.184;4.476;2022-12-18T10:30:53;22.67;;;10.73;;
44810;SDS011;30526;52.184;4.476;2022-12-18T10:33:20;35.55;;;15.05;;
44810;SDS011;30526;52.184;4.476;2022-12-18T10:35:48;26.45;;;12.98;;
44810;SDS011;30526;52.184;4.476;2022-12-18T10:43:33;29.60;;;13.98;;
44810;SDS011;30526;52.184;4.476;2022-12-18T10:48:28;28.08;;;14.18;;
44810;SDS011;30526;52.184;4.476;2022-12-18T10:50:55;22.25;;;10.85;;
44810;SDS011;30526;52.184;4.476;2022-12-18T10:53:23;23.27;;;10.90;;
44810;SDS011;30526;52.184;4.476;2022-12-18T10:55:50;31.08;;;14.25;;
44810;SDS011;30526;52.184;4.476;2022-12-18T11:00:43;25.00;;;10.48;;
44810;SDS011;30526;52.184;4.476;2022-12-18T11:03:31;27.00;;;14.43;;
44810;SDS011;30526;52.184;4.476;2022-12-18T11:06:03;20.95;;;9.35;;
44810;SDS011;30526;52.184;4.476;2022-12-18T11:08:30;26.85;;;13.98;;
44810;SDS011;30526;52.184;4.476;2022-12-18T11:10:56;17.60;;;9.80;;
44810;SDS011;30526;52.184;4.476;2022-12-18T11:13:23;29.13;;;14.50;;
44810;SDS011;30526;52.184;4.476;2022-12-18T11:15:49;23.45;;;11.70;;
44810;SDS011;30526;52.184;4.476;2022-12-18T11:18:20;24.43;;;11.13;;
44810;SDS011;30526;52.184;4.476;2022-12-18T11:20:55;25.75;;;13.32;;
44810;SDS011;30526;52.184;4.476;2022-12-18T11:23:22;30.42;;;14.50;;
44810;SDS011;30526;52.184;4.476;2022-12-18T11:25:59;22.53;;;10.80;;
44810;SDS011;30526;52.184;4.476;2022-12-18T11:33:36;24.08;;;12.75;;
44810;SDS011;30526;52.184;4.476;2022-12-18T11:36:03;27.55;;;14.43;;
44810;SDS011;30526;52.184;4.476;2022-12-18T11:38:38;25.27;;;10.95;;
44810;SDS011;30526;52.184;4.476;2022-12-18T11:43:33;26.30;;;12.50;;
44810;SDS011;30526;52.184;4.476;2022-12-18T11:46:03;27.00;;;14.00;;
44810;SDS011;30526;52.184;4.476;2022-12-18T11:48:31;28.70;;;13.32;;
44810;SDS011;30526;52.184;4.476;2022-12-18T11:50:59;25.27;;;12.57;;
44810;SDS011;30526;52.184;4.476;2022-12-18T11:53:26;21.85;;;12.05;;
44810;SDS011;30526;52.184;4.476;2022-12-18T12:06:03;24.58;;;13.02;;
44810;SDS011;30526;52.184;4.476;2022-12-18T12:29:26;29.25;;;13.45;;
44810;SDS011;30526;52.184;4.476;2022-12-18T12:36:59;25.40;;;13.20;;
44810;SDS011;30526;52.184;4.476;2022-12-18T12:39:34;26.02;;;12.73;;
44810;SDS011;30526;52.184;4.476;2022-12-18T12:42:01;28.25;;;12.15;;
44810;SDS011;30526;52.184;4.476;2022-12-18T12:44:49;24.73;;;12.88;;
44810;SDS011;30526;52.184;4.476;2022-12-18T12:47:18;27.13;;;12.95;;
44810;SDS011;30526;52.184;4.476;2022-12-18T12:49:45;30.35;;;13.40;;
44810;SDS011;30526;52.184;4.476;2022-12-18T12:52:17;20.80;;;10.30;;
44810;SDS011;30526;52.184;4.476;2022-12-18T12:54:47;25.85;;;13.63;;
44810;SDS011;30526;52.184;4.476;2022-12-18T13:04:49;24.33;;;12.73;;
44810;SDS011;30526;52.184;4.476;2022-12-18T13:07:17;28.77;;;12.85;;
44810;SDS011;30526;52.184;4.476;2022-12-18T13:12:30;23.55;;;12.63;;
44810;SDS011;30526;52.184;4.476;2022-12-18T13:15:22;22.33;;;11.32;;
44810;SDS011;30526;52.184;4.476;2022-12-18T13:17:48;26.52;;;13.02;;
44810;SDS011;30526;52.184;4.476;2022-12-18T13:20:14;27.08;;;13.93;;
44810;SDS011;30526;52.184;4.476;2022-12-18T13:22:44;26.90;;;13.30;;
44810;SDS011;30526;52.184;4.476;2022-12-18T13:25:31;22.70;;;11.93;;
44810;SDS011;30526;52.184;4.476;2022-12-18T13:46:05;32.15;;;12.95;;
44810;SDS011;30526;52.184;4.476;2022-12-18T13:48:36;23.95;;;10.18;;
44810;SDS011;30526;52.184;4.476;2022-12-18T13:51:04;29.48;;;13.45;;
44810;SDS011;30526;52.184;4.476;2022-12-18T13:53:50;26.70;;;13.38;;
44810;SDS011;30526;52.184;4.476;2022-12-18T13:56:17;30.35;;;13.45;;
44810;SDS011;30526;52.184;4.476;2022-12-18T13:58:43;31.40;;;14.07;;
44810;SDS011;30526;52.184;4.476;2022-12-18T14:01:21;27.33;;;13.43;;
44810;SDS011;30526;52.184;4.476;2022-12-18T14:03:47;24.48;;;12.60;;
44810;SDS011;30526;52.184;4.476;2022-12-18T14:06:14;30.38;;;13.65;;
44810;SDS011;30526;52.184;4.476;2022-12-18T14:08:40;23.40;;;9.70;;
44810;SDS011;30526;52.184;4.476;2022-12-18T14:11:07;24.83;;;10.55;;
44810;SDS011;30526;52.184;4.476;2022-12-18T14:13:39;24.65;;;12.85;;
44810;SDS011;30526;52.184;4.476;2022-12-18T14:16:07;28.95;;;13.27;;
44810;SDS011;30526;52.184;4.476;2022-12-18T14:18:52;21.13;;;10.30;;
44810;SDS011;30526;52.184;4.476;2022-12-18T14:21:23;28.27;;;10.77;;
44810;SDS011;30526;52.184;4.476;2022-12-18T14:26:53;27.80;;;13.23;;
44810;SDS011;30526;52.184;4.476;2022-12-18T14:34:32;27.88;;;13.52;;
44810;SDS011;30526;52.184;4.476;2022-12-18T14:36:58;33.38;;;15.43;;
44810;SDS011;30526;52.184;4.476;2022-12-18T14:39:24;30.25;;;13.13;;
44810;SDS011;30526;52.184;4.476;2022-12-18T14:41:51;31.25;;;13.77;;
44810;SDS011;30526;52.184;4.476;2022-12-18T14:44:17;24.88;;;9.90;;
44810;SDS011;30526;52.184;4.476;2022-12-18T14:46:47;25.75;;;13.48;;
44810;SDS011;30526;52.184;4.476;2022-12-18T14:49:25;31.10;;;14.68;;
44810;SDS011;30526;52.184;4.476;2022-12-18T14:51:53;27.73;;;13.43;;
44810;SDS011;30526;52.184;4.476;2022-12-18T14:54:20;27.83;;;13.73;;
44810;SDS011;30526;52.184;4.476;2022-12-18T14:56:47;20.33;;;10.68;;
44810;SDS011;30526;52.184;4.476;2022-12-18T14:59:21;30.80;;;13.98;;
44810;SDS011;30526;52.184;4.476;2022-12-18T15:04:24;29.83;;;13.40;;
44810;SDS011;30526;52.184;4.476;2022-12-18T15:07:02;28.33;;;13.30;;
44810;SDS011;30526;52.184;4.476;2022-12-18T15:09:28;28.92;;;13.80;;
44810;SDS011;30526;52.184;4.476;2022-12-18T15:11:58;28.33;;;13.32;;
44810;SDS011;30526;52.184;4.476;2022-12-18T15:14:32;32.60;;;14.98;;
44810;SDS011;30526;52.184;4.476;2022-12-18T15:16:59;27.10;;;12.98;;
44810;SDS011;30526;52.184;4.476;2022-12-18T15:21:58;30.17;;;13.20;;
44810;SDS011;30526;52.184;4.476;2022-12-18T15:24:26;26.75;;;12.30;;
44810;SDS011;30526;52.184;4.476;2022-12-18T15:26:53;28.73;;;13.05;;
44810;SDS011;30526;52.184;4.476;2022-12-18T15:29:20;31.15;;;13.40;;
44810;SDS011;30526;52.184;4.476;2022-12-18T15:32:03;32.35;;;13.85;;
44810;SDS011;30526;52.184;4.476;2022-12-18T15:34:30;26.55;;;12.90;;
44810;SDS011;30526;52.184;4.476;2022-12-18T15:36:56;24.38;;;10.18;;
44810;SDS011;30526;52.184;4.476;2022-12-18T15:39:22;30.95;;;13.77;;
44810;SDS011;30526;52.184;4.476;2022-12-18T15:41:48;32.40;;;14.38;;
44810;SDS011;30526;52.184;4.476;2022-12-18T15:44:33;25.70;;;13.00;;
44810;SDS011;30526;52.184;4.476;2022-12-18T15:46:59;23.42;;;10.77;;
44810;SDS011;30526;52.184;4.476;2022-12-18T15:49:25;30.27;;;13.77;;
44810;SDS011;30526;52.184;4.476;2022-12-18T15:51:52;29.60;;;14.15;;
44810;SDS011;30526;52.184;4.476;2022-12-18T15:54:19;24.13;;;12.20;;
44810;SDS011;30526;52.184;4.476;2022-12-18T15:57:04;26.60;;;12.80;;
44810;SDS011;30526;52.184;4.476;2022-12-18T15:59:53;33.95;;;14.20;;
44810;SDS011;30526;52.184;4.476;2022-12-18T16:02:20;32.05;;;14.13;;
44810;SDS011;30526;52.184;4.476;2022-12-18T16:04:47;15.52;;;8.63;;
44810;SDS011;30526;52.184;4.476;2022-12-18T16:07:13;31.35;;;13.85;;
44810;SDS011;30526;52.184;4.476;2022-12-18T16:09:39;19.88;;;10.43;;
44810;SDS011;30526;52.184;4.476;2022-12-18T16:12:06;31.75;;;14.23;;
44810;SDS011;30526;52.184;4.476;2022-12-18T16:14:32;26.00;;;11.13;;
44810;SDS011;30526;52.184;4.476;2022-12-18T16:16:59;31.02;;;14.70;;
44810;SDS011;30526;52.184;4.476;2022-12-18T16:21:52;22.00;;;10.27;;
44810;SDS011;30526;52.184;4.476;2022-12-18T16:24:29;28.10;;;14.50;;
44810;SDS011;30526;52.184;4.476;2022-12-18T16:26:56;35.05;;;13.35;;
44810;SDS011;30526;52.184;4.476;2022-12-18T16:29:23;29.77;;;13.70;;
44810;SDS011;30526;52.184;4.476;2022-12-18T16:31:52;29.67;;;14.52;;
44810;SDS011;30526;52.184;4.476;2022-12-18T16:34:22;28.15;;;9.57;;
44810;SDS011;30526;52.184;4.476;2022-12-18T16:36:51;31.05;;;14.57;;
44810;SDS011;30526;52.184;4.476;2022-12-18T16:39:18;22.42;;;11.45;;